Time;durP1;ratioP1;P1;durP2;ratioP2;P2;SDS_P1;SDS_P2;PMS_P1;PMS_P2;Temp;Humidity;BMP_temperature;BMP_pressure;BME280_temperature;BME280_humidity;BME280_pressure;Samples;Min_cycle;Max_cycle;Signal;HPM_P1;HPM_P2
2023/01/17 00:00:21;;;;;;;2.13;1.40;;;2.00;99.90;;;;;;7409724;19;19929;-80
2023/01/17 00:02:50;;;;;;;6.70;1.70;;;2.40;99.90;;;;;;7405153;19;19929;-80
2023/01/17 00:10:45;;;;;;;2.50;1.10;;;2.50;99.90;;;;;;7404075;19;19925;-79
2023/01/17 00:13:14;;;;;;;2.28;1.08;;;2.30;99.90;;;;;;7405279;19;19919;-79
2023/01/17 00:15:43;;;;;;;2.25;1.23;;;2.20;99.90;;;;;;7404512;19;19919;-80
2023/01/17 00:18:12;;;;;;;3.17;1.05;;;2.80;99.90;;;;;;7406617;19;20557;-80
2023/01/17 00:26:18;;;;;;;4.18;0.80;;;1.50;99.90;;;;;;7403534;19;19934;-79
2023/01/17 01:34:54;;;;;;;1.35;0.17;;;2.20;99.90;;;;;;7403075;19;19962;-79
2023/01/17 01:37:22;;;;;;;1.70;0.30;;;3.20;99.90;;;;;;7402889;19;19922;-78
2023/01/17 01:39:51;;;;;;;0.73;0.20;;;2.70;99.90;;;;;;7402111;19;19922;-79
2023/01/17 01:42:23;;;;;;;3.78;0.20;;;2.80;99.90;;;;;;7403085;19;19946;-80
2023/01/17 01:44:53;;;;;;;2.42;0.17;;;3.10;99.90;;;;;;7402173;19;19924;-80
2023/01/17 01:47:27;;;;;;;1.70;0.57;;;1.90;99.90;;;;;;7404922;19;20275;-80
2023/01/17 01:49:56;;;;;;;2.05;0.30;;;;;;;;;;7400300;19;19925;-80
2023/01/17 01:52:30;;;;;;;3.50;0.20;;;2.00;99.90;;;;;;7401204;19;19926;-80
2023/01/17 01:55:02;;;;;;;2.75;0.50;;;2.30;99.90;;;;;;7401512;19;19918;-78
2023/01/17 01:57:36;;;;;;;;;;;2.60;99.90;;;;;;7407271;19;19942;-80
2023/01/17 02:00:10;;;;;;;0.38;0.10;;;2.60;99.90;;;;;;7402676;19;19938;-80
2023/01/17 02:02:40;;;;;;;3.72;0.40;;;2.60;99.90;;;;;;7402791;19;19919;-78
2023/01/17 02:05:11;;;;;;;3.67;0.20;;;2.70;99.90;;;;;;7401596;19;19919;-80
2023/01/17 02:07:45;;;;;;;1.88;0.40;;;2.20;99.90;;;;;;7401593;19;19919;-80
2023/01/17 02:10:14;;;;;;;0.75;0.30;;;3.10;99.90;;;;;;7401687;19;19923;-80
2023/01/17 02:12:47;;;;;;;1.40;0.20;;;2.70;99.90;;;;;;7401710;19;20471;-80
2023/01/17 02:15:16;;;;;;;1.60;0.20;;;2.30;99.90;;;;;;7403797;19;20375;-80
2023/01/17 02:17:54;;;;;;;1.20;0.20;;;2.80;99.90;;;;;;7412389;19;19919;-79
2023/01/17 02:20:47;;;;;;;1.27;0.32;;;2.60;99.90;;;;;;7410343;19;19919;-80
2023/01/17 02:23:45;;;;;;;1.60;0.22;;;1.90;99.90;;;;;;7408009;19;19915;-79
2023/01/17 02:26:45;;;;;;;3.10;0.20;;;1.80;99.90;;;;;;7410668;19;19978;-79
2023/01/17 02:30:06;;;;;;;1.35;0.05;;;2.60;99.90;;;;;;7411980;19;19922;-78
2023/01/17 02:33:03;;;;;;;1.58;0.20;;;2.40;99.90;;;;;;7410233;19;19964;-78
2023/01/17 02:35:42;;;;;;;2.78;0.22;;;1.40;99.90;;;;;;7408244;19;19922;-78
2023/01/17 02:38:22;;;;;;;1.23;0.20;;;1.20;99.90;;;;;;7410090;19;20240;-78
2023/01/17 02:40:56;;;;;;;0.13;0.00;;;2.90;99.90;;;;;;7407331;19;19911;-80
2023/01/17 02:43:26;;;;;;;1.90;0.22;;;2.60;99.90;;;;;;7408821;19;19949;-80
2023/01/17 02:45:55;;;;;;;0.98;0.30;;;1.60;99.90;;;;;;7408072;19;20458;-80
2023/01/17 02:48:30;;;;;;;2.15;0.25;;;2.00;99.90;;;;;;7407020;19;19918;-80
2023/01/17 02:51:28;;;;;;;3.47;0.88;;;2.50;99.90;;;;;;7404500;19;19915;-80
2023/01/17 02:54:11;;;;;;;2.78;0.20;;;1.50;99.90;;;;;;7407158;19;19916;-80
2023/01/17 02:56:50;;;;;;;4.93;0.30;;;2.90;99.90;;;;;;7406632;19;19919;-80
2023/01/17 02:59:34;;;;;;;6.97;0.55;;;2.70;99.90;;;;;;7403721;19;19925;-80
2023/01/17 03:02:13;;;;;;;4.05;0.25;;;1.70;99.90;;;;;;7406776;19;19937;-81
2023/01/17 03:04:51;;;;;;;2.15;0.63;;;3.00;99.90;;;;;;7406769;19;19933;-81
2023/01/17 03:07:24;;;;;;;6.80;0.45;;;1.80;99.90;;;;;;7410094;19;19915;-81
2023/01/17 03:09:58;;;;;;;3.58;0.35;;;1.30;99.90;;;;;;7409200;19;19922;-81
2023/01/17 03:12:30;;;;;;;3.45;0.35;;;2.70;99.90;;;;;;7411301;19;19922;-80
2023/01/17 03:14:59;;;;;;;5.40;0.40;;;2.20;99.90;;;;;;7408728;19;19919;-80
2023/01/17 03:17:33;;;;;;;4.03;0.45;;;1.40;99.90;;;;;;7411110;19;19918;-80
2023/01/17 03:20:04;;;;;;;3.38;0.57;;;3.00;99.90;;;;;;7405775;19;19922;-81
2023/01/17 03:22:33;;;;;;;4.00;0.88;;;2.30;99.90;;;;;;7405809;19;19933;-80
2023/01/17 03:25:02;;;;;;;6.50;0.80;;;3.00;99.90;;;;;;7404269;19;19915;-81
2023/01/17 03:27:31;;;;;;;5.57;0.65;;;2.00;99.90;;;;;;7407175;19;19915;-80
2023/01/17 03:30:00;;;;;;;6.85;1.00;;;;;;;;;;7407426;19;20358;-79
2023/01/17 03:32:29;;;;;;;2.92;0.45;;;2.40;99.90;;;;;;7409155;19;19994;-79
2023/01/17 03:34:58;;;;;;;5.78;1.15;;;2.30;99.90;;;;;;7405737;19;19922;-79
2023/01/17 03:37:30;;;;;;;4.03;0.57;;;2.60;99.90;;;;;;7408354;19;19922;-80
2023/01/17 03:39:59;;;;;;;3.47;0.43;;;2.60;99.90;;;;;;7405618;19;19926;-80
2023/01/17 03:42:27;;;;;;;1.70;0.65;;;2.50;99.90;;;;;;7407256;19;19927;-80
2023/01/17 03:44:56;;;;;;;5.25;0.57;;;1.70;99.90;;;;;;7405341;19;19918;-80
2023/01/17 03:47:25;;;;;;;3.00;0.30;;;1.80;99.90;;;;;;7407324;19;19933;-80
2023/01/17 03:49:54;;;;;;;3.20;0.65;;;1.90;99.90;;;;;;7404884;19;19918;-80
2023/01/17 03:52:23;;;;;;;2.38;0.60;;;3.30;99.90;;;;;;7408322;19;19922;-80
2023/01/17 03:54:54;;;;;;;1.45;0.13;;;2.60;99.90;;;;;;7404030;19;19914;-80
2023/01/17 03:57:23;;;;;;;4.78;0.43;;;3.30;99.90;;;;;;7404310;19;20344;-81
2023/01/17 03:59:52;;;;;;;5.90;0.68;;;2.90;99.90;;;;;;7405750;19;19918;-80
2023/01/17 04:02:21;;;;;;;5.10;0.43;;;3.20;99.90;;;;;;7406014;19;19941;-80
2023/01/17 04:04:50;;;;;;;2.70;0.57;;;2.70;99.90;;;;;;7405486;19;19910;-80
2023/01/17 04:07:19;;;;;;;2.17;0.55;;;1.60;99.90;;;;;;7406439;19;19930;-80
2023/01/17 04:09:48;;;;;;;1.65;0.57;;;3.20;99.90;;;;;;7404642;19;19930;-80
2023/01/17 04:12:19;;;;;;;2.25;0.40;;;2.40;99.90;;;;;;7404717;19;20355;-80
2023/01/17 04:14:49;;;;;;;;;;;2.20;99.90;;;;;;7407055;19;19925;-80
2023/01/17 04:17:21;;;;;;;6.20;0.93;;;2.40;99.90;;;;;;7406544;19;19927;-80
2023/01/17 04:19:50;;;;;;;1.83;0.28;;;;;;;;;;7404595;19;19918;-80
2023/01/17 04:22:19;;;;;;;3.85;1.13;;;1.70;99.90;;;;;;7403003;19;19935;-81
2023/01/17 04:24:48;;;;;;;1.75;0.90;;;0.90;99.90;;;;;;7403236;19;19926;-80
2023/01/17 04:27:19;;;;;;;3.28;0.50;;;1.80;99.90;;;;;;7404561;19;19918;-81
2023/01/17 04:29:48;;;;;;;4.25;0.60;;;2.80;99.90;;;;;;7405673;19;19998;-81
2023/01/17 04:32:17;;;;;;;2.15;0.38;;;2.50;99.90;;;;;;7404804;19;19918;-81
2023/01/17 04:34:46;;;;;;;4.07;0.60;;;2.30;99.90;;;;;;7404963;19;19929;-81
2023/01/17 04:37:15;;;;;;;5.63;0.57;;;2.80;99.90;;;;;;7404469;19;19998;-81
2023/01/17 04:39:44;;;;;;;4.20;1.13;;;2.30;99.90;;;;;;7404798;19;20271;-81
2023/01/17 04:42:13;;;;;;;4.88;0.55;;;3.00;99.90;;;;;;7400878;19;19918;-81
2023/01/17 04:44:45;;;;;;;4.88;1.23;;;2.90;99.90;;;;;;7404500;19;19918;-81
2023/01/17 04:47:13;;;;;;;2.25;0.25;;;2.30;99.90;;;;;;7405328;19;19926;-80
2023/01/17 04:49:42;;;;;;;7.28;0.73;;;2.10;99.90;;;;;;7403744;19;19922;-81
2023/01/17 04:52:11;;;;;;;2.20;0.63;;;;;;;;;;7401059;19;20353;-82
2023/01/17 04:54:41;;;;;;;2.30;0.40;;;1.30;99.90;;;;;;7404733;19;19987;-82
2023/01/17 04:57:10;;;;;;;0.35;0.20;;;1.00;99.90;;;;;;7403673;19;19915;-79
2023/01/17 04:59:39;;;;;;;5.13;0.50;;;2.20;99.90;;;;;;7401662;19;20369;-81
2023/01/17 05:02:11;;;;;;;5.82;0.52;;;1.00;99.90;;;;;;7405719;19;19926;-81
2023/01/17 05:04:40;;;;;;;;;;;1.90;99.90;;;;;;7406648;19;19917;-81
2023/01/17 05:07:09;;;;;;;2.75;0.22;;;1.60;99.90;;;;;;7404006;19;19923;-81
2023/01/17 05:09:38;;;;;;;5.30;0.57;;;2.40;99.90;;;;;;7404075;19;19970;-81
2023/01/17 05:12:07;;;;;;;1.50;0.30;;;1.70;99.90;;;;;;7406198;19;19929;-81
2023/01/17 05:14:36;;;;;;;3.85;0.70;;;1.50;99.90;;;;;;7410260;19;20401;-80
2023/01/17 05:17:06;;;;;;;8.30;0.65;;;1.20;99.90;;;;;;7411534;19;19929;-82
2023/01/17 05:19:38;;;;;;;4.18;0.60;;;2.00;99.90;;;;;;7403635;19;19923;-81
2023/01/17 05:22:13;;;;;;;1.83;0.57;;;1.90;99.90;;;;;;7402264;19;19949;-81
2023/01/17 05:24:43;;;;;;;3.28;0.70;;;1.10;99.90;;;;;;7403960;19;19917;-81
2023/01/17 05:27:12;;;;;;;6.30;0.60;;;;;;;;;;7403321;19;20054;-81
2023/01/17 05:29:41;;;;;;;5.32;0.60;;;2.10;99.90;;;;;;7406556;19;19981;-82
2023/01/17 05:32:10;;;;;;;5.60;0.70;;;1.70;99.90;;;;;;7404864;19;19924;-82
2023/01/17 05:34:42;;;;;;;3.42;0.90;;;1.40;99.90;;;;;;7402840;19;19921;-82
2023/01/17 05:37:11;;;;;;;2.03;0.38;;;;;;;;;;7402333;19;20332;-81
2023/01/17 05:39:40;;;;;;;4.90;0.63;;;0.90;99.90;;;;;;7403036;19;19919;-81
2023/01/17 05:42:08;;;;;;;4.95;0.75;;;2.00;99.90;;;;;;7402401;19;19925;-82
2023/01/17 05:44:37;;;;;;;5.82;0.40;;;0.70;99.90;;;;;;7402520;19;19926;-82
2023/01/17 05:47:06;;;;;;;2.10;0.40;;;0.80;99.90;;;;;;7405544;19;20546;-82
2023/01/17 05:49:37;;;;;;;3.53;0.85;;;1.00;99.90;;;;;;7401102;19;19922;-81
2023/01/17 05:52:09;;;;;;;1.05;0.30;;;0.70;99.90;;;;;;7404991;19;19914;-82
2023/01/17 05:54:38;;;;;;;2.28;0.30;;;2.10;99.90;;;;;;7408016;19;19928;-82
2023/01/17 05:57:07;;;;;;;1.10;0.35;;;;;;;;;;7404998;19;19942;-82
2023/01/17 05:59:36;;;;;;;1.20;0.82;;;1.70;99.90;;;;;;7406260;19;19915;-81
2023/01/17 06:02:05;;;;;;;0.93;0.35;;;1.30;99.90;;;;;;7404392;19;19945;-82
2023/01/17 06:04:33;;;;;;;4.45;0.43;;;2.40;99.90;;;;;;7404710;19;19922;-81
2023/01/17 06:07:02;;;;;;;3.08;0.45;;;0.60;99.90;;;;;;7405037;19;19911;-82
2023/01/17 06:09:34;;;;;;;3.25;0.40;;;1.70;99.90;;;;;;7402774;19;20014;-82
2023/01/17 06:12:03;;;;;;;1.77;0.38;;;2.30;99.90;;;;;;7404758;19;19919;-82
2023/01/17 06:14:32;;;;;;;2.85;0.20;;;2.10;99.90;;;;;;7404336;19;19918;-80
2023/01/17 06:17:00;;;;;;;2.67;0.20;;;2.20;99.90;;;;;;7401710;19;19923;-82
2023/01/17 06:19:30;;;;;;;3.72;0.30;;;1.40;99.90;;;;;;7401381;19;19922;-81
2023/01/17 06:21:59;;;;;;;4.28;0.73;;;1.10;99.90;;;;;;7405582;19;20014;-82
2023/01/17 06:24:29;;;;;;;3.35;0.60;;;;;;;;;;7399212;19;19982;-82
2023/01/17 06:27:00;;;;;;;4.63;0.73;;;1.90;99.90;;;;;;7401206;19;19971;-81
2023/01/17 06:29:29;;;;;;;5.75;2.08;;;2.30;99.90;;;;;;7400496;19;19919;-82
2023/01/17 06:31:58;;;;;;;13.52;3.75;;;2.00;99.90;;;;;;7401365;19;19923;-82
2023/01/17 06:34:27;;;;;;;30.63;13.43;;;0.90;99.90;;;;;;7401060;19;19915;-81
2023/01/17 06:36:56;;;;;;;9.48;5.20;;;2.20;99.90;;;;;;7400329;19;19915;-81
2023/01/17 06:39:25;;;;;;;4.03;0.73;;;1.30;99.90;;;;;;7402759;19;19933;-81
2023/01/17 06:41:54;;;;;;;3.95;1.20;;;1.90;99.90;;;;;;7400994;19;20384;-81
2023/01/17 06:44:26;;;;;;;0.82;0.40;;;1.90;99.90;;;;;;7401312;19;19919;-81
2023/01/17 06:46:55;;;;;;;3.80;0.57;;;1.10;99.90;;;;;;7398324;19;19922;-81
2023/01/17 06:49:24;;;;;;;31.98;1.48;;;1.50;99.90;;;;;;7400711;19;19919;-81
2023/01/17 06:51:53;;;;;;;3.63;0.73;;;0.80;99.90;;;;;;7401464;19;19919;-81
2023/01/17 06:54:22;;;;;;;4.78;0.50;;;;;;;;;;7399433;19;19929;-81
2023/01/17 06:56:51;;;;;;;5.03;0.95;;;1.70;99.90;;;;;;7404294;19;19921;-81
2023/01/17 06:59:19;;;;;;;3.00;1.00;;;0.20;99.90;;;;;;7397732;19;19939;-81
2023/01/17 07:01:51;;;;;;;3.97;1.02;;;1.30;99.90;;;;;;7388827;19;20838;-83
2023/01/17 07:04:20;;;;;;;3.35;0.55;;;0.80;99.90;;;;;;7400941;19;19945;-80
2023/01/17 07:06:49;;;;;;;5.47;0.80;;;0.40;99.90;;;;;;7403538;19;19930;-83
2023/01/17 07:09:18;;;;;;;5.38;0.90;;;0.50;99.90;;;;;;7404928;19;19922;-83
2023/01/17 07:11:47;;;;;;;3.47;0.85;;;0.50;99.90;;;;;;7407340;19;19923;-81
2023/01/17 07:14:16;;;;;;;2.72;1.00;;;0.60;99.90;;;;;;7406581;19;19930;-81
2023/01/17 07:16:47;;;;;;;4.32;0.60;;;0.80;99.90;;;;;;7409675;19;19929;-81
2023/01/17 07:19:19;;;;;;;2.97;0.68;;;0.60;99.90;;;;;;7406200;19;20346;-81
2023/01/17 07:21:52;;;;;;;2.35;0.43;;;0.40;99.90;;;;;;7410821;19;19922;-81
2023/01/17 07:24:22;;;;;;;4.82;0.98;;;0.60;99.90;;;;;;7405121;19;19945;-81
2023/01/17 07:26:51;;;;;;;1.30;0.20;;;-0.10;99.90;;;;;;7405272;19;19980;-82
2023/01/17 07:29:20;;;;;;;0.82;0.20;;;-0.10;99.90;;;;;;7409682;19;19918;-81
2023/01/17 07:31:50;;;;;;;4.03;0.50;;;0.30;99.90;;;;;;7403328;19;19948;-82
2023/01/17 07:34:22;;;;;;;5.47;0.70;;;0.40;99.90;;;;;;7405480;19;20511;-81
2023/01/17 07:36:53;;;;;;;0.40;0.30;;;-0.10;99.90;;;;;;7407925;19;19927;-81
2023/01/17 07:39:22;;;;;;;2.25;0.50;;;-0.10;99.90;;;;;;7406114;19;19915;-81
2023/01/17 07:41:51;;;;;;;4.25;0.60;;;0.40;99.90;;;;;;7406154;19;19926;-80
2023/01/17 07:44:19;;;;;;;5.72;0.50;;;-0.20;99.90;;;;;;7405591;19;20402;-81
2023/01/17 07:46:48;;;;;;;1.13;0.40;;;0.50;99.90;;;;;;7405919;19;19934;-81
2023/01/17 07:49:17;;;;;;;3.20;0.82;;;-0.10;99.90;;;;;;7405763;19;19947;-81
2023/01/17 07:51:49;;;;;;;4.22;0.30;;;-0.20;99.90;;;;;;7408909;19;19926;-81
2023/01/17 07:54:18;;;;;;;2.95;0.38;;;0.10;99.90;;;;;;7406106;19;20342;-82
2023/01/17 07:56:47;;;;;;;5.22;1.00;;;-0.10;99.90;;;;;;7406951;19;19933;-81
2023/01/17 07:59:16;;;;;;;2.55;0.40;;;-0.20;99.90;;;;;;7410848;19;19946;-81
2023/01/17 08:01:45;;;;;;;2.05;0.65;;;0.80;99.90;;;;;;7411644;19;19927;-81
2023/01/17 08:04:15;;;;;;;2.20;0.82;;;-0.20;99.90;;;;;;7405613;19;19917;-80
2023/01/17 08:06:47;;;;;;;3.90;0.40;;;0.50;99.90;;;;;;7406544;19;19926;-81
2023/01/17 08:09:19;;;;;;;2.83;0.50;;;1.30;99.90;;;;;;7406832;19;19939;-81
2023/01/17 08:11:47;;;;;;;3.55;0.28;;;-0.30;99.90;;;;;;7404260;19;19928;-82
2023/01/17 08:14:16;;;;;;;1.05;0.30;;;1.00;99.90;;;;;;7385176;19;21054;-82
2023/01/17 08:16:45;;;;;;;7.55;0.47;;;0.20;99.90;;;;;;7388736;19;19918;-82
2023/01/17 08:19:15;;;;;;;2.70;0.40;;;-0.20;99.90;;;;;;7404691;19;20320;-83
2023/01/17 08:21:44;;;;;;;2.25;0.50;;;0.90;99.90;;;;;;7403369;19;20318;-82
2023/01/17 08:24:15;;;;;;;1.63;0.50;;;0.70;99.90;;;;;;7403126;19;19924;-82
2023/01/17 08:26:46;;;;;;;2.92;1.15;;;0.70;99.90;;;;;;7405002;19;19926;-85
2023/01/17 08:29:15;;;;;;;1.77;0.52;;;1.50;99.90;;;;;;7403691;19;19941;-77
2023/01/17 08:31:44;;;;;;;5.30;0.93;;;0.90;99.90;;;;;;7402769;19;19928;-78
2023/01/17 08:34:13;;;;;;;2.53;0.47;;;0.60;99.90;;;;;;7411711;19;19919;-83
2023/01/17 08:36:41;;;;;;;0.70;0.35;;;1.30;99.90;;;;;;7416113;19;19915;-82
2023/01/17 08:39:11;;;;;;;3.70;0.80;;;0.40;99.90;;;;;;7424007;19;20317;-77
2023/01/17 08:41:40;;;;;;;2.78;0.50;;;0.70;99.90;;;;;;7406781;19;19914;-75
2023/01/17 08:44:12;;;;;;;0.82;0.30;;;1.00;99.90;;;;;;7404300;19;19922;-86
2023/01/17 08:46:42;;;;;;;4.90;0.55;;;0.80;99.90;;;;;;7402816;19;19941;-87
2023/01/17 08:49:13;;;;;;;1.08;0.28;;;1.40;99.90;;;;;;7405102;19;19925;-85
2023/01/17 08:51:42;;;;;;;4.60;0.65;;;1.20;99.90;;;;;;7406156;19;20520;-84
2023/01/17 08:54:14;;;;;;;1.77;0.40;;;0.80;99.90;;;;;;7384975;19;19926;-83
2023/01/17 08:56:45;;;;;;;2.08;0.70;;;0.20;99.90;;;;;;7404108;19;19943;-85
2023/01/17 08:59:17;;;;;;;1.02;0.52;;;0.90;99.90;;;;;;7400458;19;19914;-84
2023/01/17 09:01:46;;;;;;;3.25;0.32;;;1.80;99.90;;;;;;7404510;19;19929;-86
2023/01/17 09:04:15;;;;;;;2.17;0.50;;;0.90;99.90;;;;;;7400716;19;19942;-86
2023/01/17 09:06:47;;;;;;;1.05;0.40;;;1.70;99.90;;;;;;7393318;19;19930;-84
2023/01/17 09:09:17;;;;;;;3.35;0.60;;;1.60;99.90;;;;;;7403513;19;20348;-84
2023/01/17 09:11:46;;;;;;;4.10;0.63;;;1.70;99.90;;;;;;7393305;19;19926;-86
2023/01/17 09:14:18;;;;;;;3.45;0.50;;;1.70;99.90;;;;;;7382714;19;19942;-85
2023/01/17 09:16:47;;;;;;;2.65;0.52;;;0.70;99.90;;;;;;7380802;19;20279;-82
2023/01/17 09:19:16;;;;;;;5.38;0.70;;;0.40;99.90;;;;;;7379928;19;19922;-84
2023/01/17 09:21:45;;;;;;;4.20;1.08;;;0.20;99.90;;;;;;7382742;19;19926;-83
2023/01/17 09:24:15;;;;;;;1.63;0.40;;;1.80;99.90;;;;;;7381750;19;19926;-85
2023/01/17 09:26:44;;;;;;;1.35;0.32;;;0.20;99.90;;;;;;7384554;19;20327;-87
2023/01/17 09:29:16;;;;;;;4.00;0.43;;;0.60;99.90;;;;;;7379318;19;19922;-86
2023/01/17 09:31:48;;;;;;;3.30;0.30;;;0.60;99.90;;;;;;7382374;19;19919;-85
2023/01/17 09:34:17;;;;;;;2.03;0.57;;;0.60;99.90;;;;;;7381584;19;19953;-86
2023/01/17 09:36:46;;;;;;;1.75;0.65;;;1.40;99.90;;;;;;7380254;19;19922;-79
2023/01/17 09:39:16;;;;;;;3.30;0.60;;;1.10;99.90;;;;;;7381782;19;19977;-86
2023/01/17 09:41:50;;;;;;;4.82;0.77;;;1.10;99.90;;;;;;7391028;19;19915;-85
2023/01/17 09:44:29;;;;;;;2.65;0.50;;;1.50;99.90;;;;;;7406374;19;19918;-85
2023/01/17 09:47:06;;;;;;;2.42;0.40;;;1.40;99.90;;;;;;7403994;19;19918;-86
2023/01/17 09:49:41;;;;;;;8.73;1.38;;;1.40;99.90;;;;;;7402929;19;19921;-84
2023/01/17 09:52:14;;;;;;;0.82;0.40;;;1.80;99.90;;;;;;7404059;19;20095;-86
2023/01/17 09:54:44;;;;;;;4.35;0.50;;;1.50;99.90;;;;;;7405204;19;20248;-84
2023/01/17 09:57:31;;;;;;;6.07;1.00;;;1.90;99.90;;;;;;7406281;19;19922;-84
2023/01/17 10:00:08;;;;;;;1.77;0.63;;;1.30;99.90;;;;;;7402546;19;19915;-83
2023/01/17 10:03:01;;;;;;;2.75;0.60;;;1.80;99.90;;;;;;7406300;19;19990;-82
2023/01/17 10:05:51;;;;;;;4.75;0.93;;;1.60;99.90;;;;;;7404877;19;19926;-84
2023/01/17 10:08:33;;;;;;;1.55;0.30;;;2.80;99.90;;;;;;7403001;19;20243;-84
2023/01/17 10:11:26;;;;;;;5.50;0.43;;;2.00;99.90;;;;;;7403167;19;20269;-83
2023/01/17 10:14:08;;;;;;;4.50;0.50;;;1.20;99.90;;;;;;7405869;19;19914;-84
2023/01/17 10:16:46;;;;;;;3.97;0.77;;;1.20;99.90;;;;;;7405920;19;20324;-83
2023/01/17 10:19:37;;;;;;;5.43;0.93;;;2.00;99.90;;;;;;7405815;19;19926;-85
2023/01/17 10:22:24;;;;;;;5.70;1.55;;;1.30;99.90;;;;;;7400608;19;20296;-84
2023/01/17 10:25:16;;;;;;;2.33;0.45;;;1.50;99.90;;;;;;7402829;19;19915;-85
2023/01/17 10:27:49;;;;;;;4.80;0.73;;;1.70;99.90;;;;;;7404882;19;19919;-84
2023/01/17 10:30:24;;;;;;;5.13;2.10;;;2.30;99.90;;;;;;7400589;19;19926;-84
2023/01/17 10:32:55;;;;;;;3.50;0.98;;;2.50;99.90;;;;;;7403782;19;19918;-83
2023/01/17 10:35:31;;;;;;;1.88;0.68;;;2.80;99.90;;;;;;7402302;19;20279;-85
2023/01/17 10:38:05;;;;;;;3.42;0.60;;;2.20;99.90;;;;;;7410059;19;20259;-84
2023/01/17 10:40:42;;;;;;;1.35;0.60;;;3.40;99.90;;;;;;7408130;19;19966;-85
2023/01/17 10:43:20;;;;;;;2.17;0.50;;;2.90;99.90;;;;;;7410586;19;20396;-85
2023/01/17 10:45:54;;;;;;;1.75;0.30;;;3.20;99.90;;;;;;7406162;19;20253;-85
2023/01/17 10:48:35;;;;;;;4.25;0.75;;;2.30;99.90;;;;;;7407698;19;19928;-79
2023/01/17 10:51:16;;;;;;;2.50;0.73;;;2.40;99.90;;;;;;7405011;19;19923;-85
2023/01/17 10:53:59;;;;;;;2.50;0.80;;;2.90;99.90;;;;;;7405347;19;19925;-85
2023/01/17 10:56:31;;;;;;;2.42;0.60;;;3.10;99.90;;;;;;7410504;19;19919;-85
2023/01/17 10:59:17;;;;;;;1.10;0.32;;;1.80;99.90;;;;;;7408770;19;19927;-84
2023/01/17 11:01:46;;;;;;;1.95;0.32;;;2.10;99.90;;;;;;7410257;19;19924;-83
2023/01/17 11:04:21;;;;;;;3.92;0.40;;;2.50;99.90;;;;;;7408164;19;19923;-82
2023/01/17 11:07:13;;;;;;;3.22;0.50;;;2.20;99.90;;;;;;7409255;19;19914;-82
2023/01/17 11:09:43;;;;;;;2.35;0.30;;;2.30;99.90;;;;;;7409436;19;19923;-84
2023/01/17 11:12:22;;;;;;;2.38;0.50;;;2.70;99.90;;;;;;7409396;19;19919;-83
2023/01/17 11:15:02;;;;;;;5.50;1.30;;;2.70;99.90;;;;;;7412110;19;19922;-83
2023/01/17 11:17:32;;;;;;;2.55;0.50;;;2.10;99.90;;;;;;7413122;19;19926;-83
2023/01/17 11:20:19;;;;;;;3.80;0.80;;;3.50;99.90;;;;;;7409702;19;20276;-84
2023/01/17 11:23:14;;;;;;;2.00;0.70;;;3.70;99.90;;;;;;7408805;19;20658;-81
2023/01/17 11:25:51;;;;;;;2.30;0.50;;;3.00;99.90;;;;;;7405192;19;19918;-80
2023/01/17 11:28:25;;;;;;;1.35;0.82;;;3.70;99.90;;;;;;7409666;19;19922;-82
2023/01/17 11:30:56;;;;;;;4.90;0.55;;;2.10;99.90;;;;;;7407697;19;19935;-83
2023/01/17 11:33:52;;;;;;;3.13;0.80;;;3.60;99.90;;;;;;7406709;19;19929;-81
2023/01/17 11:36:23;;;;;;;2.65;0.57;;;3.30;99.90;;;;;;7403531;19;19923;-81
2023/01/17 11:39:04;;;;;;;1.75;0.35;;;4.10;99.90;;;;;;7407361;19;19929;-82
2023/01/17 11:41:38;;;;;;;2.58;0.70;;;3.80;99.90;;;;;;7406928;19;19929;-82
2023/01/17 11:44:24;;;;;;;2.05;0.68;;;2.40;99.90;;;;;;7408416;19;20352;-84
2023/01/17 11:47:17;;;;;;;5.95;0.82;;;3.30;99.90;;;;;;7407106;19;19945;-83
2023/01/17 11:49:47;;;;;;;5.28;0.60;;;3.30;99.90;;;;;;7407333;19;19926;-82
2023/01/17 11:52:25;;;;;;;1.60;0.50;;;4.40;99.90;;;;;;7406048;19;19918;-82
2023/01/17 11:54:57;;;;;;;3.25;0.25;;;3.30;99.90;;;;;;7405537;19;19982;-82
2023/01/17 11:57:30;;;;;;;1.23;0.45;;;3.50;99.90;;;;;;7408129;19;19919;-81
2023/01/17 12:00:13;;;;;;;2.08;0.50;;;4.00;99.90;;;;;;7407458;19;19923;-83
2023/01/17 12:02:58;;;;;;;1.65;0.35;;;3.30;99.90;;;;;;7399417;19;19962;-85
2023/01/17 12:05:35;;;;;;;3.78;0.70;;;3.90;99.90;;;;;;7408681;19;19978;-83
2023/01/17 12:08:14;;;;;;;1.50;0.30;;;3.60;99.90;;;;;;7406508;19;19926;-82
2023/01/17 12:10:55;;;;;;;1.27;0.32;;;3.40;99.90;;;;;;7403483;19;19923;-84
2023/01/17 12:16:31;;;;;;;3.65;0.63;;;3.60;99.90;;;;;;7406270;19;19978;-83
2023/01/17 12:19:18;;;;;;;3.28;0.70;;;3.60;99.90;;;;;;7407654;19;19922;-83
2023/01/17 12:22:00;;;;;;;3.75;0.65;;;3.60;99.90;;;;;;7407836;19;19923;-82
2023/01/17 12:24:44;;;;;;;1.20;0.40;;;4.30;99.90;;;;;;7403478;19;19927;-82
2023/01/17 12:27:24;;;;;;;3.22;0.50;;;4.50;99.90;;;;;;7402626;19;19970;-78
2023/01/17 12:30:09;;;;;;;1.42;0.47;;;3.60;99.90;;;;;;7402453;19;19993;-78
2023/01/17 12:33:02;;;;;;;2.85;0.40;;;4.50;99.90;;;;;;7402818;19;19915;-76
2023/01/17 12:35:38;;;;;;;3.08;0.70;;;3.80;99.90;;;;;;7392730;19;19918;-77
2023/01/17 12:38:11;;;;;;;7.18;1.02;;;3.80;99.90;;;;;;7402535;19;19923;-78
2023/01/17 12:40:48;;;;;;;3.22;0.50;;;3.80;99.90;;;;;;7401896;19;19922;-79
2023/01/17 12:43:25;;;;;;;2.67;0.52;;;4.10;99.90;;;;;;7404783;19;20311;-76
2023/01/17 12:45:55;;;;;;;1.08;0.40;;;4.00;99.90;;;;;;7403443;19;19941;-77
2023/01/17 12:48:30;;;;;;;3.05;0.65;;;3.90;99.90;;;;;;7403231;19;20382;-76
2023/01/17 12:51:04;;;;;;;1.10;0.40;;;4.60;99.90;;;;;;7403173;19;20313;-77
2023/01/17 12:53:39;;;;;;;2.55;0.47;;;4.10;99.90;;;;;;7396566;19;19942;-78
2023/01/17 12:56:12;;;;;;;3.55;0.52;;;3.90;99.90;;;;;;7402538;19;19926;-78
2023/01/17 12:58:48;;;;;;;3.60;0.50;;;3.80;99.90;;;;;;7402645;19;19985;-78
2023/01/17 13:01:24;;;;;;;1.38;0.30;;;3.90;99.90;;;;;;7401740;19;20360;-79
2023/01/17 13:04:08;;;;;;;3.47;0.90;;;4.80;99.90;;;;;;7404324;19;19986;-83
2023/01/17 13:06:49;;;;;;;0.63;0.40;;;4.30;99.90;;;;;;7403992;19;19950;-79
2023/01/17 13:09:23;;;;;;;0.77;0.20;;;4.30;99.90;;;;;;7366675;19;19929;-79
2023/01/17 13:11:57;;;;;;;0.95;0.40;;;4.20;99.90;;;;;;7379106;19;19933;-79
2023/01/17 13:14:29;;;;;;;3.00;0.65;;;5.50;99.90;;;;;;7377451;19;19934;-80
2023/01/17 13:17:02;;;;;;;1.40;0.52;;;5.60;99.90;;;;;;7381166;19;19926;-79
2023/01/17 13:19:43;;;;;;;1.20;0.43;;;4.40;99.90;;;;;;7379973;19;19954;-79
2023/01/17 13:22:18;;;;;;;2.80;0.45;;;4.60;99.90;;;;;;7380726;19;19919;-79
2023/01/17 13:24:56;;;;;;;6.97;1.05;;;4.90;99.90;;;;;;7382082;19;20260;-80
2023/01/17 13:27:54;;;;;;;3.70;0.40;;;4.20;99.90;;;;;;7381845;19;19924;-79
2023/01/17 13:30:42;;;;;;;1.08;0.55;;;4.10;99.90;;;;;;7382832;19;19933;-79
2023/01/17 13:33:30;;;;;;;1.10;0.40;;;4.00;99.90;;;;;;7384393;19;19974;-79
2023/01/17 13:36:12;;;;;;;0.80;0.50;;;3.70;99.90;;;;;;7377476;19;19923;-79
2023/01/17 13:39:31;;;;;;;2.17;0.93;;;3.80;99.90;;;;;;7359074;19;19922;-80
2023/01/17 13:42:13;;;;;;;1.02;0.35;;;3.80;99.90;;;;;;7398531;19;19923;-79
2023/01/17 13:44:42;;;;;;;1.90;0.40;;;3.80;99.90;;;;;;7403447;19;19978;-74
2023/01/17 13:47:49;;;;;;;1.17;0.30;;;4.60;99.90;;;;;;7401789;19;19925;-76
2023/01/17 13:50:54;;;;;;;4.88;0.50;;;3.90;99.90;;;;;;7399374;19;19914;-74
2023/01/17 13:53:53;;;;;;;7.10;0.55;;;4.10;99.90;;;;;;7398885;19;19986;-72
2023/01/17 13:56:31;;;;;;;1.58;0.40;;;4.20;99.90;;;;;;7387787;19;20332;-78
2023/01/17 13:59:35;;;;;;;1.98;0.50;;;4.10;99.90;;;;;;7402101;19;19933;-74
2023/01/17 14:02:04;;;;;;;4.10;0.50;;;4.10;99.90;;;;;;7402438;19;19922;-71
2023/01/17 14:05:03;;;;;;;1.45;0.40;;;4.10;99.90;;;;;;7403464;19;19930;-73
2023/01/17 14:07:40;;;;;;;1.63;0.45;;;3.90;99.90;;;;;;7400069;19;19921;-70
2023/01/17 14:10:33;;;;;;;2.08;0.68;;;4.20;99.90;;;;;;7402835;19;19985;-72
2023/01/17 14:13:03;;;;;;;1.42;0.30;;;4.20;99.90;;;;;;7400668;19;19927;-71
2023/01/17 14:15:36;;;;;;;2.15;0.50;;;4.40;99.90;;;;;;7405526;19;19929;-76
2023/01/17 14:18:07;;;;;;;1.77;0.40;;;4.30;99.90;;;;;;7408843;19;19974;-77
2023/01/17 14:20:46;;;;;;;0.40;0.35;;;4.40;99.90;;;;;;7410121;19;19926;-77
2023/01/17 14:23:49;;;;;;;0.52;0.20;;;4.50;99.90;;;;;;7408779;19;19927;-79
2023/01/17 14:26:46;;;;;;;0.45;0.10;;;4.50;99.90;;;;;;7405063;19;19918;-77
2023/01/17 14:29:52;;;;;;;2.38;0.40;;;4.60;99.90;;;;;;7397782;19;20609;-72
2023/01/17 14:32:24;;;;;;;3.35;0.40;;;4.70;99.90;;;;;;7409100;19;19954;-72
2023/01/17 14:34:54;;;;;;;;;;;4.60;99.90;;;;;;7408451;19;19922;-72
2023/01/17 14:37:31;;;;;;;0.60;0.52;;;5.40;99.90;;;;;;7409761;19;19937;-72
2023/01/17 14:40:03;;;;;;;1.50;0.38;;;4.70;99.90;;;;;;7408955;19;19926;-72
2023/01/17 14:42:34;;;;;;;2.83;0.32;;;5.10;99.90;;;;;;7407530;19;19914;-73
2023/01/17 14:45:07;;;;;;;2.03;0.40;;;3.60;99.90;;;;;;7405688;19;19925;-74
2023/01/17 14:47:38;;;;;;;1.30;0.20;;;4.20;99.90;;;;;;7406501;19;19933;-74
2023/01/17 14:50:21;;;;;;;1.42;0.50;;;4.40;99.90;;;;;;7407450;19;19927;-74
2023/01/17 14:53:07;;;;;;;0.70;0.38;;;5.40;99.90;;;;;;7407534;19;19915;-74
2023/01/17 14:55:39;;;;;;;1.88;0.40;;;4.80;99.90;;;;;;7406728;19;19914;-73
2023/01/17 14:58:17;;;;;;;0.98;0.35;;;4.70;99.90;;;;;;7407576;19;19919;-75